createdAt,value
2023-12-29T00:02:05.144Z,15.88
2023-12-29T00:04:33.287Z,13.32
2023-12-29T00:07:03.573Z,13.43
2023-12-29T00:09:31.630Z,11.87
2023-12-29T00:11:59.768Z,12.65
2023-12-29T00:14:27.568Z,16.70
2023-12-29T00:16:58.465Z,14.00
2023-12-29T00:19:26.910Z,12.63
2023-12-29T00:21:54.574Z,14.23
2023-12-29T00:24:22.148Z,14.23
2023-12-29T00:26:49.910Z,15.07
2023-12-29T00:29:17.484Z,18.60
2023-12-29T00:31:45.055Z,14.45
2023-12-29T00:34:13.221Z,12.73
2023-12-29T00:36:41.558Z,14.05
2023-12-29T00:39:09.272Z,13.55
2023-12-29T00:41:38.119Z,13.35
2023-12-29T00:44:08.046Z,13.45
2023-12-29T00:46:36.110Z,14.30
2023-12-29T00:49:04.456Z,13.48
2023-12-29T00:51:32.330Z,16.77
2023-12-29T00:54:00.255Z,17.20
2023-12-29T00:56:28.161Z,16.62
2023-12-29T00:58:55.996Z,14.67
2023-12-29T01:01:23.884Z,14.00
2023-12-29T01:03:55.781Z,13.18
2023-12-29T01:06:24.384Z,16.42
2023-12-29T01:08:52.228Z,14.23
2023-12-29T01:11:19.990Z,16.60
2023-12-29T01:13:47.592Z,15.95
2023-12-29T01:16:15.469Z,13.55
2023-12-29T01:18:43.456Z,16.15
2023-12-29T01:21:11.224Z,14.77
2023-12-29T01:23:39.059Z,12.57
2023-12-29T01:26:06.838Z,15.95
2023-12-29T01:28:34.681Z,12.50
2023-12-29T01:31:02.861Z,13.45
2023-12-29T01:33:30.555Z,13.45
2023-12-29T01:36:00.698Z,14.83
2023-12-29T01:38:31.094Z,16.48
2023-12-29T01:40:58.855Z,14.27
2023-12-29T01:43:26.551Z,12.48
2023-12-29T01:45:58.081Z,12.68
2023-12-29T01:48:26.871Z,13.50
2023-12-29T01:50:55.792Z,12.95
2023-12-29T01:53:31.142Z,12.35
2023-12-29T01:56:08.034Z,11.52
2023-12-29T01:58:37.158Z,13.38
2023-12-29T02:01:06.135Z,12.40
2023-12-29T02:03:36.181Z,15.35
2023-12-29T02:06:04.854Z,16.17
2023-12-29T02:08:33.356Z,14.40
2023-12-29T02:11:01.647Z,14.13
2023-12-29T02:13:29.480Z,13.70
2023-12-29T02:16:01.948Z,12.73
2023-12-29T02:18:31.732Z,14.50
2023-12-29T02:20:59.557Z,13.32
2023-12-29T02:23:27.321Z,13.45
2023-12-29T02:25:57.128Z,13.93
2023-12-29T02:28:27.458Z,16.77
2023-12-29T02:31:15.225Z,14.43
2023-12-29T02:33:44.506Z,15.73
2023-12-29T02:36:13.862Z,12.68
2023-12-29T02:38:41.873Z,11.70
2023-12-29T02:41:09.789Z,14.52
2023-12-29T02:43:37.364Z,15.23
2023-12-29T02:46:05.301Z,11.10
2023-12-29T02:48:33.199Z,11.30
2023-12-29T02:51:01.964Z,11.37
2023-12-29T02:53:29.947Z,12.35
2023-12-29T02:55:58.929Z,12.48
2023-12-29T02:58:26.776Z,15.35
2023-12-29T03:00:55.583Z,12.30
2023-12-29T03:03:23.743Z,13.37
2023-12-29T03:05:51.407Z,12.68
2023-12-29T03:08:20.062Z,10.05
2023-12-29T03:10:48.174Z,12.10
2023-12-29T03:13:16.456Z,12.10
2023-12-29T03:15:44.317Z,12.07
2023-12-29T03:18:12.685Z,11.65
2023-12-29T03:20:40.482Z,11.60
2023-12-29T03:23:07.967Z,11.75
2023-12-29T03:25:36.360Z,12.70
2023-12-29T03:28:04.417Z,13.30
2023-12-29T03:30:32.078Z,12.10
2023-12-29T03:33:02.704Z,13.32
2023-12-29T03:35:30.957Z,14.52
2023-12-29T03:37:58.829Z,13.18
2023-12-29T03:40:27.148Z,13.77
2023-12-29T03:42:54.672Z,17.25
2023-12-29T03:45:23.309Z,13.95
2023-12-29T03:47:51.471Z,12.07
2023-12-29T03:50:18.972Z,11.82
2023-12-29T03:52:46.478Z,13.47
2023-12-29T03:55:15.781Z,12.98
2023-12-29T03:57:44.171Z,11.40
2023-12-29T04:00:15.642Z,11.05
2023-12-29T04:02:44.779Z,10.85
2023-12-29T04:05:13.271Z,10.37
2023-12-29T04:07:41.895Z,13.10
2023-12-29T04:10:10.226Z,12.23
2023-12-29T04:12:38.578Z,11.45
2023-12-29T04:15:06.814Z,13.57
2023-12-29T04:17:34.987Z,12.97
2023-12-29T04:20:02.954Z,15.82
2023-12-29T04:22:30.832Z,14.23
2023-12-29T04:24:59.024Z,13.10
2023-12-29T04:27:26.811Z,12.73
2023-12-29T04:29:54.665Z,16.20
2023-12-29T04:32:24.627Z,16.23
2023-12-29T04:34:52.478Z,13.30
2023-12-29T04:37:20.301Z,13.25
2023-12-29T04:39:48.463Z,14.45
2023-12-29T04:42:16.839Z,11.90
2023-12-29T04:44:44.354Z,13.57
2023-12-29T04:47:12.198Z,12.55
2023-12-29T04:49:40.273Z,12.90
2023-12-29T04:52:08.154Z,11.18
2023-12-29T04:54:36.300Z,11.87
2023-12-29T04:57:04.255Z,14.52
2023-12-29T04:59:32.023Z,13.13
2023-12-29T05:02:00.091Z,12.95
2023-12-29T05:04:27.713Z,14.02
2023-12-29T05:06:55.221Z,14.50
2023-12-29T05:09:23.467Z,13.18
2023-12-29T05:11:51.597Z,13.68
2023-12-29T05:14:19.406Z,14.52
2023-12-29T05:16:47.432Z,14.50
2023-12-29T05:19:15.275Z,15.13
2023-12-29T05:21:43.521Z,13.80
2023-12-29T05:24:11.726Z,12.50
2023-12-29T05:26:39.500Z,10.82
2023-12-29T05:29:07.143Z,10.60
2023-12-29T05:31:35.252Z,18.27
2023-12-29T05:34:03.131Z,11.90
2023-12-29T05:36:30.852Z,12.00
2023-12-29T05:38:59.340Z,14.18
2023-12-29T05:41:27.174Z,11.65
2023-12-29T05:43:54.780Z,13.00
2023-12-29T05:46:22.939Z,10.73
2023-12-29T05:48:52.842Z,15.77
2023-12-29T05:51:21.326Z,11.57
2023-12-29T05:53:49.489Z,15.45
2023-12-29T05:56:17.258Z,11.50
2023-12-29T05:58:44.981Z,13.25
2023-12-29T06:01:13.288Z,12.25
2023-12-29T06:03:41.438Z,13.20
2023-12-29T06:06:09.358Z,13.27
2023-12-29T06:08:37.299Z,13.53
2023-12-29T06:11:05.470Z,13.23
2023-12-29T06:13:33.465Z,12.40
2023-12-29T06:16:01.351Z,12.80
2023-12-29T06:18:29.620Z,10.73
2023-12-29T06:20:57.383Z,12.30
2023-12-29T06:23:26.854Z,10.88
2023-12-29T06:25:54.988Z,12.90
2023-12-29T06:28:22.655Z,16.42
2023-12-29T06:30:50.450Z,10.48
2023-12-29T06:33:22.011Z,11.27
2023-12-29T06:35:49.937Z,11.82
2023-12-29T06:38:18.060Z,12.68
2023-12-29T06:40:46.535Z,11.23
2023-12-29T06:43:14.526Z,10.30
2023-12-29T06:45:42.725Z,10.07
2023-12-29T06:48:10.930Z,10.50
2023-12-29T06:50:38.895Z,9.20
2023-12-29T06:53:07.032Z,10.13
2023-12-29T06:55:34.793Z,9.18
2023-12-29T06:58:02.986Z,10.67
2023-12-29T07:00:31.386Z,8.90
2023-12-29T07:02:59.293Z,9.05
2023-12-29T07:05:27.011Z,9.30
2023-12-29T07:07:54.981Z,11.88
2023-12-29T07:10:22.967Z,8.87
2023-12-29T07:12:51.665Z,10.43
2023-12-29T07:15:19.754Z,11.70
2023-12-29T07:17:47.616Z,15.02
2023-12-29T07:20:15.209Z,11.95
2023-12-29T07:22:43.494Z,11.23
2023-12-29T07:25:12.735Z,9.18
2023-12-29T07:27:40.705Z,13.90
2023-12-29T07:30:09.932Z,10.43
2023-12-29T07:32:37.843Z,8.65
2023-12-29T07:35:06.100Z,9.63
2023-12-29T07:37:34.086Z,10.00
2023-12-29T07:40:01.688Z,9.85
2023-12-29T07:42:30.425Z,12.48
2023-12-29T07:44:58.450Z,12.32
2023-12-29T07:47:26.047Z,11.43
2023-12-29T07:49:53.996Z,13.27
2023-12-29T07:52:22.213Z,15.93
2023-12-29T07:54:50.527Z,23.75
2023-12-29T07:57:18.388Z,24.75
2023-12-29T07:59:46.444Z,18.93
2023-12-29T08:02:14.182Z,22.52
2023-12-29T08:04:42.314Z,33.97
2023-12-29T08:07:11.156Z,26.92
2023-12-29T08:09:39.126Z,26.45
2023-12-29T08:12:07.763Z,28.40
2023-12-29T08:14:35.532Z,29.00
2023-12-29T08:17:03.516Z,29.70
2023-12-29T08:19:31.466Z,28.52
2023-12-29T08:21:59.160Z,27.73
2023-12-29T08:24:26.764Z,25.90
2023-12-29T08:26:54.649Z,25.00
2023-12-29T08:29:22.828Z,25.30
2023-12-29T08:31:50.638Z,25.20
2023-12-29T08:34:20.449Z,22.05
2023-12-29T08:36:48.650Z,16.70
2023-12-29T08:39:16.424Z,23.50
2023-12-29T08:41:44.451Z,28.00
2023-12-29T08:44:12.243Z,40.95
2023-12-29T08:46:39.976Z,40.05
2023-12-29T08:49:08.470Z,47.47
2023-12-29T08:51:36.434Z,40.17
2023-12-29T08:54:04.312Z,36.13
2023-12-29T08:56:32.315Z,36.88
2023-12-29T08:58:59.864Z,40.85
2023-12-29T09:01:27.690Z,38.43
2023-12-29T09:03:55.985Z,37.00
2023-12-29T09:06:23.894Z,38.13
2023-12-29T09:08:51.630Z,32.15
2023-12-29T09:11:19.527Z,29.77
2023-12-29T09:13:47.253Z,31.37
2023-12-29T09:16:15.071Z,30.35
2023-12-29T09:18:43.257Z,30.42
2023-12-29T09:21:11.272Z,30.67
2023-12-29T09:23:39.726Z,36.42
2023-12-29T09:26:07.592Z,34.10
2023-12-29T09:28:35.450Z,32.20
2023-12-29T09:31:03.203Z,32.67
2023-12-29T09:33:31.260Z,31.12
2023-12-29T09:35:59.036Z,32.20
2023-12-29T09:38:26.885Z,38.30
2023-12-29T09:40:56.325Z,34.20
2023-12-29T09:43:24.629Z,37.03
2023-12-29T09:45:53.596Z,36.13
2023-12-29T09:48:21.698Z,32.72
2023-12-29T09:50:51.329Z,33.60
2023-12-29T09:53:22.182Z,34.05
2023-12-29T09:55:51.373Z,29.55
2023-12-29T09:58:22.813Z,27.98
2023-12-29T10:00:51.697Z,27.50
2023-12-29T10:03:19.638Z,29.13
2023-12-29T10:05:52.313Z,31.17
2023-12-29T10:08:21.943Z,32.03
2023-12-29T10:10:51.116Z,35.20
2023-12-29T10:13:19.345Z,25.27
2023-12-29T10:15:52.431Z,24.20
2023-12-29T10:18:32.006Z,21.23
2023-12-29T10:21:09.462Z,28.20
2023-12-29T10:23:44.988Z,26.83
2023-12-29T10:26:13.251Z,27.17
2023-12-29T10:28:40.838Z,24.63
2023-12-29T10:31:11.139Z,22.92
2023-12-29T10:33:40.282Z,21.98
2023-12-29T10:36:10.088Z,19.33
2023-12-29T10:38:40.947Z,20.88
2023-12-29T10:41:11.788Z,20.23
2023-12-29T10:43:39.945Z,24.00
2023-12-29T10:46:11.868Z,22.73
2023-12-29T10:48:40.849Z,21.17
2023-12-29T10:51:08.542Z,20.80
2023-12-29T10:53:40.439Z,20.73
2023-12-29T10:56:22.370Z,21.48
2023-12-29T10:59:06.872Z,20.35
2023-12-29T11:01:36.389Z,19.55
2023-12-29T11:04:11.008Z,17.33
2023-12-29T11:06:45.086Z,17.30
2023-12-29T11:09:13.224Z,20.08
2023-12-29T11:11:41.321Z,16.55
2023-12-29T11:14:11.501Z,16.50
2023-12-29T11:16:40.871Z,15.70
2023-12-29T11:19:13.944Z,17.23
2023-12-29T11:21:42.905Z,17.95
2023-12-29T11:24:19.137Z,17.48
2023-12-29T11:26:52.226Z,15.70
2023-12-29T11:29:20.920Z,14.30
2023-12-29T11:31:51.499Z,17.17
2023-12-29T11:34:31.833Z,14.98
2023-12-29T11:37:26.414Z,14.68
2023-12-29T11:40:06.101Z,14.13
2023-12-29T11:42:38.353Z,12.80
2023-12-29T11:45:36.911Z,11.97
2023-12-29T11:48:05.872Z,14.57
2023-12-29T11:50:39.255Z,12.13
2023-12-29T11:53:07.723Z,12.75
2023-12-29T11:55:37.364Z,14.05
2023-12-29T11:58:30.166Z,12.17
2023-12-29T12:00:59.132Z,13.75
2023-12-29T12:03:29.006Z,13.30
2023-12-29T12:05:59.566Z,13.07
2023-12-29T12:08:40.649Z,11.15
2023-12-29T12:11:35.349Z,17.73
2023-12-29T12:14:03.267Z,17.83
2023-12-29T12:16:46.767Z,16.08
2023-12-29T12:19:16.131Z,12.50
2023-12-29T12:21:47.832Z,13.82
2023-12-29T12:24:17.060Z,14.33
2023-12-29T12:26:44.821Z,12.27
2023-12-29T12:29:15.034Z,14.35
2023-12-29T12:31:58.987Z,14.32
2023-12-29T12:34:27.750Z,13.30
2023-12-29T12:37:00.639Z,9.40
2023-12-29T12:39:42.180Z,10.35
2023-12-29T12:42:16.764Z,9.48
2023-12-29T12:44:58.189Z,11.00
2023-12-29T12:47:29.491Z,11.07
2023-12-29T12:49:57.462Z,10.93
2023-12-29T12:52:25.414Z,12.43
2023-12-29T12:54:55.061Z,13.23
2023-12-29T12:57:22.874Z,16.10
2023-12-29T12:59:51.933Z,15.93
2023-12-29T13:02:21.510Z,15.73
2023-12-29T13:04:49.822Z,13.32
2023-12-29T13:07:20.912Z,13.18
2023-12-29T13:09:51.535Z,13.52
2023-12-29T13:12:19.998Z,16.67
2023-12-29T13:14:47.910Z,14.83
2023-12-29T13:17:17.698Z,14.15
2023-12-29T13:19:45.591Z,17.23
2023-12-29T13:22:16.169Z,16.77
2023-12-29T13:24:47.710Z,18.98
2023-12-29T13:27:16.760Z,19.60
2023-12-29T13:29:45.330Z,20.80
2023-12-29T13:32:29.465Z,19.23
2023-12-29T13:34:57.889Z,25.20
2023-12-29T13:37:31.426Z,21.35
2023-12-29T13:40:18.973Z,22.77
2023-12-29T13:42:48.574Z,23.55
2023-12-29T13:45:17.262Z,21.80
2023-12-29T13:47:46.491Z,25.92
2023-12-29T13:50:14.667Z,24.80
2023-12-29T13:52:42.834Z,22.03
2023-12-29T13:55:10.831Z,21.02
2023-12-29T13:57:38.566Z,18.42
2023-12-29T14:00:39.211Z,21.08
2023-12-29T14:03:11.513Z,20.20
2023-12-29T14:05:52.283Z,20.13
2023-12-29T14:08:28.084Z,19.85
2023-12-29T14:10:55.974Z,21.40
2023-12-29T14:13:24.408Z,20.25
2023-12-29T14:15:53.231Z,22.80
2023-12-29T14:18:39.917Z,25.67
2023-12-29T14:21:29.807Z,26.87
2023-12-29T14:24:12.185Z,35.33
2023-12-29T14:26:54.609Z,26.10
2023-12-29T14:29:22.715Z,25.62
2023-12-29T14:31:54.255Z,38.87
2023-12-29T14:34:22.217Z,30.75
2023-12-29T14:36:50.306Z,21.85
2023-12-29T14:39:17.936Z,19.52
2023-12-29T14:41:46.756Z,17.40
2023-12-29T14:44:15.019Z,16.80
2023-12-29T14:46:43.061Z,13.93
2023-12-29T14:49:10.919Z,14.93
2023-12-29T14:51:39.234Z,14.23
2023-12-29T14:54:08.057Z,15.73
2023-12-29T14:56:35.592Z,19.10
2023-12-29T14:59:05.556Z,20.02
2023-12-29T15:01:34.669Z,19.33
2023-12-29T15:04:02.390Z,18.08
2023-12-29T15:06:30.295Z,20.23
2023-12-29T15:08:57.858Z,19.50
2023-12-29T15:11:25.317Z,19.65
2023-12-29T15:13:53.189Z,19.70
2023-12-29T15:16:20.981Z,13.68
2023-12-29T15:18:48.849Z,13.38
2023-12-29T15:21:17.078Z,11.97
2023-12-29T15:23:50.877Z,12.15
2023-12-29T15:26:19.852Z,12.23
2023-12-29T15:28:54.928Z,12.32
2023-12-29T15:31:23.147Z,11.23
2023-12-29T15:33:51.928Z,12.17
2023-12-29T15:36:24.021Z,12.80
2023-12-29T15:38:52.240Z,11.52
2023-12-29T15:41:20.407Z,13.13
2023-12-29T15:43:48.333Z,11.45
2023-12-29T15:46:23.437Z,9.83
2023-12-29T15:48:51.621Z,11.18
2023-12-29T15:51:19.959Z,10.68
2023-12-29T15:53:47.846Z,9.68
2023-12-29T15:56:22.194Z,10.38
2023-12-29T15:58:51.346Z,13.83
2023-12-29T16:01:25.682Z,10.57
2023-12-29T16:03:53.980Z,12.35
2023-12-29T16:06:24.882Z,9.45
2023-12-29T16:08:55.466Z,12.07
2023-12-29T16:11:28.004Z,10.90
2023-12-29T16:13:56.456Z,10.65
2023-12-29T16:16:28.585Z,10.05
2023-12-29T16:19:00.527Z,9.68
2023-12-29T16:21:32.004Z,11.50
2023-12-29T16:24:02.303Z,13.60
2023-12-29T16:26:35.911Z,13.90
2023-12-29T16:29:10.739Z,14.75
2023-12-29T16:31:38.886Z,16.05
2023-12-29T16:34:06.731Z,13.57
2023-12-29T16:36:34.795Z,12.13
2023-12-29T16:39:02.859Z,12.07
2023-12-29T16:41:30.560Z,12.50
2023-12-29T16:43:59.147Z,18.10
2023-12-29T16:46:26.957Z,14.90
2023-12-29T16:48:55.415Z,15.27
2023-12-29T16:51:25.996Z,16.85
2023-12-29T16:53:53.864Z,12.70
2023-12-29T16:56:21.863Z,13.10
2023-12-29T16:58:50.085Z,14.30
2023-12-29T17:01:19.003Z,11.73
2023-12-29T17:03:49.486Z,13.43
2023-12-29T17:06:17.390Z,13.40
2023-12-29T17:08:45.135Z,13.60
2023-12-29T17:11:12.679Z,14.27
2023-12-29T17:13:40.750Z,14.00
2023-12-29T17:16:08.251Z,11.35
2023-12-29T17:18:36.049Z,10.63
2023-12-29T17:21:07.275Z,12.73
2023-12-29T17:23:35.198Z,11.65
2023-12-29T17:26:04.522Z,12.73
2023-12-29T17:28:34.108Z,13.95
2023-12-29T17:31:03.723Z,11.07
2023-12-29T17:33:31.752Z,10.35
2023-12-29T17:36:00.269Z,12.27
2023-12-29T17:38:28.192Z,12.47
2023-12-29T17:40:55.774Z,11.15
2023-12-29T17:43:24.007Z,9.77
2023-12-29T17:45:51.842Z,11.32
2023-12-29T17:48:19.418Z,10.07
2023-12-29T17:50:47.625Z,10.83
2023-12-29T17:53:17.094Z,13.77
2023-12-29T17:55:45.356Z,11.93
2023-12-29T17:58:13.257Z,18.08
2023-12-29T18:00:40.919Z,21.85
2023-12-29T18:03:09.398Z,23.87
2023-12-29T18:05:37.253Z,32.38
2023-12-29T18:08:06.907Z,76.37
2023-12-29T18:10:35.108Z,85.97
2023-12-29T18:13:03.858Z,74.22
2023-12-29T18:15:31.747Z,73.70
2023-12-29T18:17:59.690Z,36.25
2023-12-29T18:20:27.675Z,17.60
2023-12-29T18:22:55.490Z,13.05
2023-12-29T18:25:23.651Z,12.77
2023-12-29T18:27:51.350Z,12.37
2023-12-29T18:30:18.974Z,12.95
2023-12-29T18:32:47.181Z,12.88
2023-12-29T18:35:14.984Z,14.60
2023-12-29T18:37:45.085Z,13.10
2023-12-29T18:40:13.240Z,9.47
2023-12-29T18:42:41.036Z,11.43
2023-12-29T18:45:09.345Z,11.25
2023-12-29T18:47:39.261Z,10.82
2023-12-29T18:50:07.636Z,11.20
2023-12-29T18:52:36.441Z,10.80
2023-12-29T18:55:04.582Z,11.52
2023-12-29T18:57:32.144Z,9.93
2023-12-29T18:59:59.711Z,11.52
2023-12-29T19:02:27.514Z,10.95
2023-12-29T19:04:55.124Z,11.57
2023-12-29T19:07:25.706Z,11.10
2023-12-29T19:09:53.784Z,9.80
2023-12-29T19:12:21.389Z,11.12
2023-12-29T19:14:54.056Z,12.52
2023-12-29T19:17:23.501Z,10.87
2023-12-29T19:19:51.499Z,11.63
2023-12-29T19:22:19.196Z,13.07
2023-12-29T19:24:49.034Z,11.82
2023-12-29T19:27:17.867Z,11.95
2023-12-29T19:29:45.647Z,13.07
2023-12-29T19:32:13.501Z,10.75
2023-12-29T19:34:43.940Z,18.83
2023-12-29T19:37:11.843Z,20.33
2023-12-29T19:39:45.028Z,15.30
2023-12-29T19:42:13.268Z,13.00
2023-12-29T19:44:42.025Z,11.90
2023-12-29T19:47:10.562Z,11.57
2023-12-29T19:49:38.528Z,12.43
2023-12-29T19:52:06.548Z,10.07
2023-12-29T19:54:34.112Z,11.63
2023-12-29T19:57:03.163Z,10.82
2023-12-29T19:59:31.093Z,11.98
2023-12-29T20:01:58.700Z,12.70
2023-12-29T20:04:26.984Z,11.60
2023-12-29T20:06:55.045Z,11.17
2023-12-29T20:09:23.672Z,11.85
2023-12-29T20:11:51.839Z,10.75
2023-12-29T20:14:19.747Z,10.57
2023-12-29T20:16:47.248Z,13.20
2023-12-29T20:19:15.676Z,13.57
2023-12-29T20:21:44.232Z,13.52
2023-12-29T20:24:13.009Z,11.07
2023-12-29T20:26:41.743Z,10.23
2023-12-29T20:29:09.335Z,10.90
2023-12-29T20:31:36.994Z,10.37
2023-12-29T20:34:05.775Z,10.55
2023-12-29T20:36:33.726Z,12.18
2023-12-29T20:39:03.304Z,12.07
2023-12-29T20:41:31.392Z,10.45
2023-12-29T20:43:59.246Z,10.13
2023-12-29T20:46:26.940Z,11.75
2023-12-29T20:48:55.276Z,11.23
2023-12-29T20:51:23.392Z,12.35
2023-12-29T20:53:52.437Z,13.75
2023-12-29T20:56:21.116Z,14.73
2023-12-29T20:58:52.747Z,9.40
2023-12-29T21:01:24.050Z,13.23
2023-12-29T21:03:52.712Z,9.55
2023-12-29T21:06:20.812Z,10.57
2023-12-29T21:08:49.307Z,10.50
2023-12-29T21:11:21.714Z,9.80
2023-12-29T21:13:50.432Z,12.30
2023-12-29T21:16:19.894Z,10.80
2023-12-29T21:18:50.833Z,10.75
2023-12-29T21:21:19.255Z,9.07
2023-12-29T21:23:47.242Z,9.85
2023-12-29T21:26:27.478Z,9.73
2023-12-29T21:28:59.164Z,12.20
2023-12-29T21:31:27.055Z,9.30
2023-12-29T21:33:54.989Z,9.73
2023-12-29T21:36:28.664Z,9.45
2023-12-29T21:38:59.652Z,10.13
2023-12-29T21:41:28.718Z,11.07
2023-12-29T21:43:59.832Z,13.20
2023-12-29T21:46:27.566Z,10.60
2023-12-29T21:48:55.519Z,14.05
2023-12-29T21:51:25.709Z,11.07
2023-12-29T21:53:54.703Z,9.93
2023-12-29T21:56:22.501Z,9.73
2023-12-29T21:58:53.806Z,9.90
2023-12-29T22:01:39.246Z,10.18
2023-12-29T22:04:10.297Z,10.38
2023-12-29T22:06:40.368Z,12.68
2023-12-29T22:09:12.466Z,11.35
2023-12-29T22:11:41.582Z,10.93
2023-12-29T22:14:13.117Z,10.80
2023-12-29T22:16:43.258Z,11.00
2023-12-29T22:19:12.272Z,8.27
2023-12-29T22:21:40.013Z,9.13
2023-12-29T22:24:08.882Z,11.97
2023-12-29T22:26:38.407Z,10.15
2023-12-29T22:29:06.016Z,8.85
2023-12-29T22:31:34.598Z,10.27
2023-12-29T22:34:07.162Z,9.73
2023-12-29T22:36:35.071Z,10.40
2023-12-29T22:39:05.414Z,9.73
2023-12-29T22:41:33.291Z,11.50
2023-12-29T22:44:01.024Z,10.00
2023-12-29T22:46:29.615Z,11.02
2023-12-29T22:49:00.569Z,9.77
2023-12-29T22:51:30.104Z,10.30
2023-12-29T22:53:58.136Z,9.55
2023-12-29T22:56:26.389Z,12.35
2023-12-29T22:58:54.513Z,9.50
2023-12-29T23:01:22.866Z,8.63
2023-12-29T23:03:51.252Z,11.10
2023-12-29T23:06:19.317Z,9.35
2023-12-29T23:08:47.181Z,11.95
2023-12-29T23:11:14.990Z,12.27
2023-12-29T23:13:42.932Z,11.10
2023-12-29T23:16:10.947Z,11.82
2023-12-29T23:18:40.172Z,9.38
2023-12-29T23:21:08.851Z,10.27
2023-12-29T23:23:36.776Z,8.85
2023-12-29T23:26:06.441Z,10.07
2023-12-29T23:28:34.321Z,9.55
2023-12-29T23:31:03.682Z,10.57
2023-12-29T23:33:31.767Z,12.18
2023-12-29T23:35:59.797Z,9.27
2023-12-29T23:38:27.732Z,13.23
2023-12-29T23:40:56.159Z,11.63
2023-12-29T23:43:24.226Z,13.57
2023-12-29T23:45:52.533Z,10.45
2023-12-29T23:48:20.602Z,8.80
2023-12-29T23:50:48.244Z,11.30
2023-12-29T23:53:16.376Z,12.60
2023-12-29T23:55:43.880Z,11.48
2023-12-29T23:58:11.769Z,11.85
